createdAt,value
2018-04-14T00:00:00.249Z,9.10
2018-04-14T00:02:27.504Z,6.40
2018-04-14T00:04:53.961Z,6.30
2018-04-14T00:07:20.426Z,8.40
2018-04-14T00:09:46.900Z,6.65
2018-04-14T00:12:13.486Z,6.62
2018-04-14T00:14:39.917Z,6.05
2018-04-14T00:17:06.493Z,5.78
2018-04-14T00:19:32.948Z,7.10
2018-04-14T00:21:59.388Z,5.93
2018-04-14T00:24:25.877Z,6.72
2018-04-14T00:26:52.349Z,5.87
2018-04-14T00:29:18.809Z,5.68
2018-04-14T00:31:45.292Z,5.50
2018-04-14T00:34:11.766Z,4.55
2018-04-14T00:36:38.237Z,5.47
2018-04-14T00:39:06.808Z,5.90
2018-04-14T00:41:33.245Z,5.28
2018-04-14T00:43:59.684Z,6.10
2018-04-14T00:46:26.126Z,6.57
2018-04-14T00:48:52.616Z,8.35
2018-04-14T00:51:19.053Z,6.93
2018-04-14T00:53:46.427Z,6.57
2018-04-14T00:56:13.121Z,6.35
2018-04-14T00:58:39.561Z,7.78
2018-04-14T01:01:06.064Z,10.02
2018-04-14T01:03:32.509Z,6.87
2018-04-14T01:05:59.735Z,5.70
2018-04-14T01:08:26.245Z,7.45
2018-04-14T01:10:52.706Z,6.47
2018-04-14T01:13:19.268Z,6.82
2018-04-14T01:15:46.460Z,5.68
2018-04-14T01:18:12.914Z,5.95
2018-04-14T01:20:39.337Z,6.55
2018-04-14T01:23:05.820Z,5.37
2018-04-14T01:25:33.047Z,5.95
2018-04-14T01:27:59.545Z,6.78
2018-04-14T01:30:26.045Z,4.78
2018-04-14T01:32:53.465Z,4.93
2018-04-14T01:35:19.912Z,5.20
2018-04-14T01:37:46.380Z,4.85
2018-04-14T01:40:12.783Z,7.03
2018-04-14T01:42:39.573Z,5.00
2018-04-14T01:45:06.032Z,5.70
2018-04-14T01:47:32.456Z,5.45
2018-04-14T01:49:58.957Z,5.57
2018-04-14T01:52:25.396Z,4.70
2018-04-14T01:54:51.877Z,6.65
2018-04-14T01:57:18.299Z,7.00
2018-04-14T01:59:44.759Z,5.47
2018-04-14T02:02:12.001Z,5.97
2018-04-14T02:04:38.480Z,5.75
2018-04-14T02:07:05.130Z,6.20
2018-04-14T02:09:31.609Z,6.25
2018-04-14T02:11:58.128Z,5.55
2018-04-14T02:14:25.397Z,5.28
2018-04-14T02:16:51.853Z,6.03
2018-04-14T02:19:19.034Z,5.32
2018-04-14T02:21:45.505Z,7.18
2018-04-14T02:24:11.949Z,6.15
2018-04-14T02:26:38.360Z,5.85
2018-04-14T02:29:04.817Z,6.37
2018-04-14T02:31:31.266Z,5.25
2018-04-14T02:33:58.522Z,6.57
2018-04-14T02:36:25.690Z,7.68
2018-04-14T02:38:52.106Z,6.12
2018-04-14T02:41:19.333Z,5.55
2018-04-14T02:43:45.766Z,5.85
2018-04-14T02:46:12.305Z,5.28
2018-04-14T02:48:38.716Z,5.00
2018-04-14T02:51:05.234Z,5.40
2018-04-14T02:53:31.679Z,5.20
2018-04-14T02:55:58.245Z,5.32
2018-04-14T02:58:25.508Z,5.37
2018-04-14T03:00:52.691Z,6.00
2018-04-14T03:03:19.147Z,4.60
2018-04-14T03:05:45.643Z,5.32
2018-04-14T03:08:12.063Z,4.65
2018-04-14T03:10:39.331Z,6.03
2018-04-14T03:13:05.780Z,6.03
2018-04-14T03:15:32.245Z,5.57
2018-04-14T03:17:58.661Z,5.50
2018-04-14T03:20:25.089Z,6.20
2018-04-14T03:22:51.537Z,4.85
2018-04-14T03:25:17.997Z,7.80
2018-04-14T03:27:44.579Z,6.78
2018-04-14T03:30:11.018Z,7.50
2018-04-14T03:32:37.445Z,7.07
2018-04-14T03:35:03.866Z,9.50
2018-04-14T03:37:30.395Z,7.43
2018-04-14T03:39:56.835Z,8.50
2018-04-14T03:42:23.282Z,7.03
2018-04-14T03:44:49.741Z,5.70
2018-04-14T03:47:16.178Z,6.82
2018-04-14T03:49:42.683Z,8.73
2018-04-14T03:52:09.157Z,7.65
2018-04-14T03:54:35.669Z,7.20
2018-04-14T03:57:02.243Z,8.00
2018-04-14T03:59:28.677Z,6.20
2018-04-14T04:01:55.123Z,8.27
2018-04-14T04:04:22.326Z,6.75
2018-04-14T04:06:48.764Z,7.47
2018-04-14T04:09:15.214Z,6.30
2018-04-14T04:11:41.641Z,7.60
2018-04-14T04:17:04.809Z,7.25
2018-04-14T04:19:43.569Z,7.03
2018-04-14T04:22:22.896Z,8.05
2018-04-14T04:30:52.796Z,6.12
2018-04-14T04:33:19.281Z,6.72
2018-04-14T04:35:46.506Z,6.57
2018-04-14T04:38:13.009Z,6.37
2018-04-14T04:40:39.485Z,6.78
2018-04-14T04:43:06.679Z,7.25
2018-04-14T04:45:33.176Z,6.80
2018-04-14T04:47:59.663Z,7.28
2018-04-14T04:50:26.097Z,7.12
2018-04-14T04:52:59.588Z,8.38
2018-04-14T04:55:26.063Z,6.47
2018-04-14T04:57:52.561Z,9.23
2018-04-14T05:00:18.994Z,8.27
2018-04-14T05:02:45.704Z,8.50
2018-04-14T05:05:12.884Z,7.55
2018-04-14T05:07:39.422Z,8.60
2018-04-14T05:10:05.865Z,12.37
2018-04-14T05:12:32.349Z,8.13
2018-04-14T05:14:59.579Z,7.70
2018-04-14T05:17:26.023Z,8.63
2018-04-14T05:19:52.518Z,8.20
2018-04-14T05:22:18.973Z,7.32
2018-04-14T05:24:45.464Z,7.50
2018-04-14T05:27:11.949Z,10.63
2018-04-14T05:29:38.397Z,7.47
2018-04-14T05:32:05.694Z,7.87
2018-04-14T05:34:32.301Z,7.93
2018-04-14T05:36:59.535Z,11.83
2018-04-14T05:39:25.973Z,9.23
2018-04-14T05:41:53.152Z,9.13
2018-04-14T05:44:19.665Z,9.23
2018-04-14T05:46:46.849Z,9.13
2018-04-14T05:49:13.384Z,10.67
2018-04-14T05:51:40.281Z,10.80
2018-04-14T05:54:06.737Z,9.70
2018-04-14T05:56:33.949Z,11.93
2018-04-14T05:59:00.462Z,12.70
2018-04-14T06:01:26.996Z,12.53
2018-04-14T06:03:53.598Z,12.03
2018-04-14T06:06:20.088Z,11.90
2018-04-14T06:08:46.601Z,12.23
2018-04-14T06:11:13.281Z,11.17
2018-04-14T06:13:39.795Z,12.53
2018-04-14T06:16:06.386Z,11.40
2018-04-14T06:18:32.937Z,12.23
2018-04-14T06:20:59.414Z,11.50
2018-04-14T06:23:25.949Z,11.53
2018-04-14T06:25:52.502Z,11.63
2018-04-14T06:28:19.726Z,11.17
2018-04-14T06:30:46.177Z,11.30
2018-04-14T06:33:12.686Z,11.10
2018-04-14T06:35:39.190Z,11.17
2018-04-14T06:38:05.692Z,11.33
2018-04-14T06:40:32.903Z,12.07
2018-04-14T06:42:59.411Z,12.33
2018-04-14T06:45:25.871Z,11.90
2018-04-14T06:47:52.375Z,12.03
2018-04-14T06:50:19.234Z,12.53
2018-04-14T06:52:45.696Z,10.97
2018-04-14T06:55:12.223Z,12.73
2018-04-14T06:57:38.681Z,12.07
2018-04-14T07:00:05.895Z,10.60
2018-04-14T07:02:32.330Z,9.93
2018-04-14T07:04:58.897Z,10.73
2018-04-14T07:07:25.463Z,11.53
2018-04-14T07:09:51.981Z,10.50
2018-04-14T07:12:19.252Z,11.90
2018-04-14T07:14:45.712Z,11.17
2018-04-14T07:17:14.103Z,11.80
2018-04-14T07:19:40.732Z,13.37
2018-04-14T07:25:03.932Z,13.93
2018-04-14T07:27:31.895Z,12.70
2018-04-14T07:29:58.297Z,11.57
2018-04-14T07:32:24.806Z,12.27
2018-04-14T07:34:51.223Z,10.63
2018-04-14T07:37:18.421Z,11.23
2018-04-14T07:39:44.915Z,10.67
2018-04-14T07:42:12.146Z,8.73
2018-04-14T07:44:38.590Z,8.07
2018-04-14T07:47:05.190Z,6.90
2018-04-14T07:49:31.683Z,7.83
2018-04-14T07:51:58.144Z,6.77
2018-04-14T07:54:24.604Z,6.57
2018-04-14T07:56:51.951Z,5.70
2018-04-14T07:59:18.494Z,5.40
2018-04-14T08:01:44.965Z,5.30
2018-04-14T08:04:12.264Z,4.53
2018-04-14T08:06:38.961Z,3.30
2018-04-14T08:09:05.476Z,4.00
2018-04-14T08:11:31.945Z,4.20
2018-04-14T08:13:58.408Z,4.40
2018-04-14T08:16:25.613Z,4.30
2018-04-14T08:18:52.857Z,3.27
2018-04-14T08:21:20.076Z,2.77
2018-04-14T08:23:46.588Z,3.23
2018-04-14T08:26:12.998Z,2.57
2018-04-14T08:28:39.538Z,2.47
2018-04-14T08:31:05.941Z,2.20
2018-04-14T08:33:33.136Z,2.60
2018-04-14T08:35:59.613Z,2.00
2018-04-14T08:38:26.128Z,1.70
2018-04-14T08:40:52.609Z,2.00
2018-04-14T08:43:19.949Z,2.90
2018-04-14T08:45:47.137Z,1.50
2018-04-14T08:48:13.571Z,1.57
2018-04-14T08:50:40.061Z,3.03
2018-04-14T08:53:07.299Z,2.00
2018-04-14T08:55:33.898Z,1.83
2018-04-14T08:58:00.384Z,2.20
2018-04-14T09:00:27.709Z,3.10
2018-04-14T09:02:54.273Z,2.07
2018-04-14T09:05:21.606Z,2.20
2018-04-14T09:07:48.102Z,2.37
2018-04-14T09:10:14.591Z,2.20
2018-04-14T09:12:41.063Z,2.00
2018-04-14T09:15:09.420Z,2.53
2018-04-14T09:17:36.669Z,2.10
2018-04-14T09:20:03.208Z,3.33
2018-04-14T09:22:30.793Z,2.00
2018-04-14T09:24:57.578Z,1.83
2018-04-14T09:27:24.092Z,1.73
2018-04-14T09:29:51.578Z,1.90
2018-04-14T09:32:18.840Z,2.47
2018-04-14T09:34:46.041Z,2.60
2018-04-14T09:37:12.650Z,2.53
2018-04-14T09:39:39.841Z,1.70
2018-04-14T09:42:07.035Z,2.53
2018-04-14T09:44:35.406Z,2.50
2018-04-14T09:47:05.506Z,2.60
2018-04-14T09:49:34.071Z,3.00
2018-04-14T09:52:02.223Z,2.23
2018-04-14T09:54:30.315Z,4.10
2018-04-14T09:56:56.820Z,3.00
2018-04-14T10:02:03.169Z,2.50
2018-04-14T10:04:29.906Z,3.07
2018-04-14T10:06:58.105Z,2.43
2018-04-14T10:09:24.603Z,2.70
2018-04-14T10:11:51.129Z,2.53
2018-04-14T10:14:17.647Z,2.77
2018-04-14T10:16:44.146Z,2.77
2018-04-14T10:19:10.687Z,1.90
2018-04-14T10:21:37.240Z,2.20
2018-04-14T10:24:03.729Z,2.30
2018-04-14T10:26:30.998Z,1.90
2018-04-14T10:28:57.585Z,2.40
2018-04-14T10:31:24.102Z,2.00
2018-04-14T10:33:50.699Z,2.63
2018-04-14T10:36:17.993Z,1.90
2018-04-14T10:38:44.624Z,2.70
2018-04-14T10:41:11.211Z,2.17
2018-04-14T10:43:37.758Z,2.47
2018-04-14T10:46:04.232Z,3.07
2018-04-14T10:48:30.697Z,2.67
2018-04-14T10:50:57.181Z,4.27
2018-04-14T10:53:24.505Z,4.40
2018-04-14T10:55:51.067Z,2.60
2018-04-14T10:58:18.281Z,2.20
2018-04-14T11:00:45.014Z,3.00
2018-04-14T11:03:11.770Z,3.03
2018-04-14T11:05:38.224Z,2.30
2018-04-14T11:08:05.482Z,3.37
2018-04-14T11:10:32.010Z,2.67
2018-04-14T11:12:59.378Z,2.80
2018-04-14T11:15:26.440Z,2.30
2018-04-14T11:17:52.987Z,2.27
2018-04-14T11:20:19.425Z,2.10
2018-04-14T11:22:45.939Z,2.03
2018-04-14T11:25:12.417Z,2.10
2018-04-14T11:27:39.041Z,1.90
2018-04-14T11:30:05.565Z,2.23
2018-04-14T11:32:31.994Z,1.77
2018-04-14T11:34:58.469Z,3.10
2018-04-14T11:37:24.928Z,1.77
2018-04-14T11:39:52.161Z,1.70
2018-04-14T11:42:18.701Z,1.80
2018-04-14T11:44:45.166Z,1.80
2018-04-14T11:47:11.637Z,2.87
2018-04-14T11:49:38.177Z,1.40
2018-04-14T11:52:04.735Z,3.33
2018-04-14T11:54:31.296Z,1.60
2018-04-14T11:56:57.821Z,2.27
2018-04-14T11:59:25.062Z,1.60
2018-04-14T12:01:52.447Z,2.33
2018-04-14T12:04:18.894Z,1.90
2018-04-14T12:06:45.466Z,2.53
2018-04-14T12:09:13.676Z,1.87
2018-04-14T12:11:40.950Z,2.40
2018-04-14T12:14:07.472Z,2.23
2018-04-14T12:16:34.850Z,2.10
2018-04-14T12:19:01.376Z,1.77
2018-04-14T12:21:27.989Z,2.00
2018-04-14T12:23:55.228Z,2.10
2018-04-14T12:26:22.586Z,1.83
2018-04-14T12:28:49.268Z,1.60
2018-04-14T12:31:15.711Z,1.80
2018-04-14T12:33:42.208Z,1.70
2018-04-14T12:36:09.410Z,1.40
2018-04-14T12:38:35.917Z,1.87
2018-04-14T12:41:02.342Z,2.43
2018-04-14T12:43:28.880Z,2.00
2018-04-14T12:45:55.354Z,2.37
2018-04-14T12:48:21.961Z,2.30
2018-04-14T12:50:48.425Z,2.33
2018-04-14T12:53:15.021Z,2.23
2018-04-14T12:55:41.453Z,2.10
2018-04-14T12:58:11.582Z,1.90
2018-04-14T13:00:38.104Z,1.70
2018-04-14T13:03:05.469Z,2.03
2018-04-14T13:05:31.958Z,2.47
2018-04-14T13:07:59.153Z,2.43
2018-04-14T13:10:28.554Z,2.50
2018-04-14T13:12:55.157Z,2.37
2018-04-14T13:15:22.529Z,2.93
2018-04-14T13:17:49.173Z,2.90
2018-04-14T13:20:15.679Z,2.40
2018-04-14T13:22:42.886Z,3.33
2018-04-14T13:25:09.459Z,2.60
2018-04-14T13:27:35.917Z,2.63
2018-04-14T13:30:02.397Z,2.57
2018-04-14T13:32:29.036Z,2.70
2018-04-14T13:37:51.546Z,3.40
2018-04-14T13:40:18.806Z,3.60
2018-04-14T13:42:45.290Z,3.50
2018-04-14T13:45:11.779Z,3.33
2018-04-14T13:47:38.307Z,3.93
2018-04-14T13:50:04.920Z,2.90
2018-04-14T13:52:32.234Z,2.67
2018-04-14T13:54:58.747Z,3.03
2018-04-14T13:57:25.328Z,3.20
2018-04-14T13:59:51.930Z,2.73
2018-04-14T14:02:18.520Z,3.47
2018-04-14T14:04:45.834Z,2.93
2018-04-14T14:07:12.305Z,2.80
2018-04-14T14:09:39.533Z,2.23
2018-04-14T14:12:06.551Z,2.47
2018-04-14T14:14:35.605Z,2.10
2018-04-14T14:17:02.077Z,2.10
2018-04-14T14:19:41.690Z,3.23
2018-04-14T14:22:08.825Z,3.00
2018-04-14T14:24:36.030Z,2.70
2018-04-14T14:27:02.625Z,3.00
2018-04-14T14:29:29.145Z,2.50
2018-04-14T14:31:56.383Z,4.07
2018-04-14T14:34:23.033Z,2.37
2018-04-14T14:36:50.235Z,2.63
2018-04-14T14:39:16.679Z,2.60
2018-04-14T14:41:43.338Z,2.00
2018-04-14T14:44:10.602Z,2.10
2018-04-14T14:46:37.082Z,2.33
2018-04-14T14:49:03.526Z,2.50
2018-04-14T14:51:30.024Z,1.73
2018-04-14T14:53:57.212Z,2.20
2018-04-14T14:56:23.710Z,2.30
2018-04-14T14:58:50.912Z,2.30
2018-04-14T15:01:17.560Z,2.77
2018-04-14T15:03:44.195Z,2.47
2018-04-14T15:06:10.741Z,2.60
2018-04-14T15:08:37.293Z,2.70
2018-04-14T15:11:04.612Z,3.80
2018-04-14T15:13:31.252Z,4.17
2018-04-14T15:15:57.716Z,4.20
2018-04-14T15:18:31.412Z,3.67
2018-04-14T15:20:57.871Z,3.50
2018-04-14T15:23:24.370Z,3.30
2018-04-14T15:25:50.835Z,3.10
2018-04-14T15:28:18.075Z,3.03
2018-04-14T15:30:45.300Z,4.63
2018-04-14T15:33:11.837Z,2.30
2018-04-14T15:35:38.414Z,1.87
2018-04-14T15:38:04.929Z,2.20
2018-04-14T15:40:32.921Z,2.07
2018-04-14T15:42:59.787Z,1.77
2018-04-14T15:45:26.336Z,1.80
2018-04-14T15:47:52.918Z,2.20
2018-04-14T15:50:20.221Z,2.50
2018-04-14T15:52:46.705Z,2.73
2018-04-14T15:55:14.054Z,3.20
2018-04-14T15:57:40.553Z,2.50
2018-04-14T16:00:07.040Z,3.77
2018-04-14T16:02:33.599Z,4.57
2018-04-14T16:05:00.103Z,3.93
2018-04-14T16:07:27.369Z,3.73
2018-04-14T16:09:54.685Z,3.07
2018-04-14T16:12:21.221Z,2.83
2018-04-14T16:14:47.761Z,2.60
2018-04-14T16:17:14.221Z,2.70
2018-04-14T16:22:51.396Z,3.50
2018-04-14T16:25:17.970Z,3.00
2018-04-14T16:27:45.316Z,2.87
2018-04-14T16:30:12.645Z,2.83
2018-04-14T16:32:39.148Z,3.40
2018-04-14T16:35:05.597Z,3.40
2018-04-14T16:37:32.095Z,3.40
2018-04-14T16:39:58.518Z,3.33
2018-04-14T16:42:25.062Z,2.70
2018-04-14T16:44:51.542Z,3.00
2018-04-14T16:47:18.129Z,2.93
2018-04-14T16:49:45.082Z,2.90
2018-04-14T16:52:13.667Z,3.57
2018-04-14T16:54:40.219Z,2.70
2018-04-14T16:57:06.813Z,2.60
2018-04-14T16:59:34.090Z,3.00
2018-04-14T17:02:00.622Z,2.90
2018-04-14T17:04:27.134Z,2.37
2018-04-14T17:06:53.593Z,2.30
2018-04-14T17:09:20.211Z,2.70
2018-04-14T17:11:46.699Z,2.47
2018-04-14T17:14:13.200Z,2.40
2018-04-14T17:16:41.684Z,4.10
2018-04-14T17:19:08.183Z,2.50
2018-04-14T17:21:35.388Z,3.83
2018-04-14T17:24:01.991Z,2.57
2018-04-14T17:26:28.509Z,2.50
2018-04-14T17:28:55.857Z,4.30
2018-04-14T17:31:25.273Z,3.67
2018-04-14T17:33:52.047Z,2.57
2018-04-14T17:36:19.374Z,4.90
2018-04-14T17:38:45.868Z,2.90
2018-04-14T17:41:15.406Z,2.60
2018-04-14T17:43:41.915Z,2.50
2018-04-14T17:46:11.724Z,2.70
2018-04-14T17:48:38.916Z,3.43
2018-04-14T17:51:05.512Z,2.47
2018-04-14T17:53:32.107Z,2.80
2018-04-14T17:55:58.676Z,2.57
2018-04-14T17:58:25.553Z,2.80
2018-04-14T18:00:52.870Z,3.17
2018-04-14T18:03:19.678Z,5.80
2018-04-14T18:05:46.406Z,2.83
2018-04-14T18:08:19.713Z,2.47
2018-04-14T18:10:46.223Z,2.33
2018-04-14T18:13:14.333Z,3.00
2018-04-14T18:15:40.788Z,2.60
2018-04-14T18:18:07.285Z,2.53
2018-04-14T18:20:33.827Z,2.67
2018-04-14T18:23:00.362Z,5.00
2018-04-14T18:25:27.114Z,3.03
2018-04-14T18:27:54.926Z,4.60
2018-04-14T18:30:21.427Z,3.00
2018-04-14T18:32:48.007Z,3.90
2018-04-14T18:35:15.302Z,4.70
2018-04-14T18:40:38.084Z,4.20
2018-04-14T18:43:04.507Z,3.33
2018-04-14T18:45:31.952Z,6.03
2018-04-14T18:47:58.517Z,6.03
2018-04-14T18:50:24.965Z,3.87
2018-04-14T18:52:52.096Z,5.10
2018-04-14T18:55:18.716Z,6.07
2018-04-14T18:57:45.206Z,5.00
2018-04-14T19:00:12.387Z,5.80
2018-04-14T19:02:38.907Z,3.53
2018-04-14T19:05:05.443Z,4.70
2018-04-14T19:07:31.924Z,8.20
2018-04-14T19:09:58.383Z,6.63
2018-04-14T19:12:24.863Z,8.10
2018-04-14T19:17:47.033Z,5.27
2018-04-14T19:20:13.535Z,5.03
2018-04-14T19:22:39.970Z,5.83
2018-04-14T19:25:06.685Z,5.13
2018-04-14T19:27:33.906Z,5.43
2018-04-14T19:30:00.308Z,5.17
2018-04-14T19:32:26.862Z,7.63
2018-04-14T19:34:53.379Z,6.67
2018-04-14T19:37:20.048Z,8.97
2018-04-14T19:39:46.548Z,7.70
2018-04-14T19:42:13.077Z,9.17
2018-04-14T19:44:39.639Z,7.13
2018-04-14T19:47:06.127Z,7.43
2018-04-14T19:49:32.645Z,10.30
2018-04-14T19:51:59.983Z,12.00
2018-04-14T19:54:27.483Z,7.80
2018-04-14T19:56:53.947Z,10.70
2018-04-14T19:59:20.501Z,8.93
2018-04-14T20:01:47.068Z,11.73
2018-04-14T20:04:14.336Z,10.53
2018-04-14T20:06:40.851Z,9.47
2018-04-14T20:09:08.169Z,13.87
2018-04-14T20:11:34.642Z,12.13
2018-04-14T20:14:01.164Z,12.03
2018-04-14T20:16:28.530Z,11.30
2018-04-14T20:18:55.012Z,12.87
2018-04-14T20:21:22.349Z,10.67
2018-04-14T20:23:48.869Z,10.10
2018-04-14T20:26:15.429Z,11.03
2018-04-14T20:28:41.905Z,9.17
2018-04-14T20:31:09.264Z,9.00
2018-04-14T20:33:36.489Z,8.87
2018-04-14T20:36:02.985Z,10.60
2018-04-14T20:38:29.498Z,7.63
2018-04-14T20:41:03.756Z,8.83
2018-04-14T20:43:30.969Z,8.90
2018-04-14T20:45:57.549Z,8.07
2018-04-14T20:48:24.060Z,8.90
2018-04-14T20:50:50.647Z,11.33
2018-04-14T20:53:17.197Z,9.90
2018-04-14T20:55:44.392Z,16.90
2018-04-14T20:58:10.916Z,10.30
2018-04-14T21:00:37.407Z,11.60
2018-04-14T21:03:04.015Z,14.07
2018-04-14T21:05:37.655Z,10.67
2018-04-14T21:08:04.910Z,13.07
2018-04-14T21:10:32.124Z,11.90
2018-04-14T21:12:58.849Z,12.70
2018-04-14T21:15:25.329Z,9.70
2018-04-14T21:17:52.656Z,10.40
2018-04-14T21:20:19.300Z,11.93
2018-04-14T21:22:45.853Z,12.70
2018-04-14T21:25:13.052Z,11.40
2018-04-14T21:27:39.632Z,9.23
2018-04-14T21:30:06.129Z,11.60
2018-04-14T21:32:35.227Z,10.50
2018-04-14T21:35:15.201Z,13.27
2018-04-14T21:37:41.776Z,12.13
2018-04-14T21:40:08.343Z,9.43
2018-04-14T21:42:34.858Z,10.90
2018-04-14T21:45:01.392Z,10.30
2018-04-14T21:47:27.922Z,18.87
2018-04-14T21:49:54.414Z,17.23
2018-04-14T21:52:20.873Z,13.20
2018-04-14T21:54:49.636Z,16.80
2018-04-14T21:57:16.122Z,12.33
2018-04-14T21:59:42.629Z,12.77
2018-04-14T22:02:09.822Z,10.63
2018-04-14T22:04:36.661Z,11.37
2018-04-14T22:07:03.120Z,11.73
2018-04-14T22:09:29.670Z,15.63
2018-04-14T22:11:56.149Z,12.27
2018-04-14T22:14:34.020Z,12.13
2018-04-14T22:17:01.265Z,12.73
2018-04-14T22:19:28.493Z,16.53
2018-04-14T22:21:55.014Z,14.00
2018-04-14T22:24:21.472Z,13.70
2018-04-14T22:26:47.922Z,14.67
2018-04-14T22:29:14.416Z,14.20
2018-04-14T22:31:40.929Z,14.50
2018-04-14T22:34:07.376Z,11.77
2018-04-14T22:36:33.992Z,12.50
2018-04-14T22:39:00.473Z,14.63
2018-04-14T22:41:26.974Z,12.13
2018-04-14T22:43:53.411Z,11.77
2018-04-14T22:46:19.972Z,11.33
2018-04-14T22:48:46.546Z,16.33
2018-04-14T22:51:13.824Z,13.93
2018-04-14T22:53:40.333Z,12.30
2018-04-14T22:56:07.654Z,12.80
2018-04-14T22:58:34.166Z,11.13
2018-04-14T23:01:00.661Z,11.47
2018-04-14T23:03:28.294Z,13.00
2018-04-14T23:05:54.820Z,11.70
2018-04-14T23:08:21.285Z,11.97
2018-04-14T23:10:48.644Z,17.23
2018-04-14T23:13:15.863Z,52.27
2018-04-14T23:15:42.341Z,38.40
2018-04-14T23:18:08.882Z,25.27
2018-04-14T23:20:35.351Z,22.10
2018-04-14T23:23:02.572Z,16.57
2018-04-14T23:25:29.057Z,11.97
2018-04-14T23:27:56.398Z,11.60
2018-04-14T23:30:22.898Z,13.10
2018-04-14T23:32:49.509Z,11.20
2018-04-14T23:35:15.970Z,11.90
2018-04-14T23:37:42.555Z,12.13
2018-04-14T23:40:09.032Z,12.13
2018-04-14T23:42:42.538Z,12.90
2018-04-14T23:45:09.005Z,11.13
2018-04-14T23:47:35.736Z,13.27
2018-04-14T23:50:02.217Z,12.60
2018-04-14T23:52:30.195Z,11.03
2018-04-14T23:54:56.663Z,12.83
2018-04-14T23:57:23.257Z,11.90
2018-04-14T23:59:49.733Z,10.80
